Hutchinson Municipal Airport Hutchinson US
ICAO: KHUT
IATA: HUT
Category: Medium
Scheduled Services: No

Elevation: 1543 ft
TransAlt. 18000 ft.

Airport Communications:
WICHITA APP DEP:125.5
ATIS:124.25
CTAF:118.5
GND:121.9
WICHITA RDO:122.05
TWR:118.5
UNICOM:122.95

KHUT Zoom In..

Runways:

(A) RW 04 length 6000 ft width 100 ft
---- / hdg 36

(B) RW 13 length 7004 ft width 100 ft
ILS 110.10 / hdg 132

(C) RW 17 length 4252 ft width 75 ft
---- / hdg 171

(D) RW 22 length 6000 ft width 100 ft
---- / hdg 216

(E) RW 31 length 7004 ft width 100 ft
---- / hdg 312

(F) RW 35 length 4252 ft width 75 ft
---- / hdg 351

Location; KHUT
Day. 22 / Time. 00.13 Zulu
* Altimeter: 30.15
* Temperature: 07° c. 44.6°f.
* Wind from: 050° Speed 05 kn.
Dewpoint: 06° c.
Visibility: 10 Statute Miles.
Clouds: Few 900 ft.
Clouds: Overcast 3200 ft.

KHUT 220013Z 05005KT 10SM FEW009 OVC032 07/06 A3015 RMK AO2 T00720061


Wind From 050°
Speed 05 kn.

  YouTube Music Video
 
jpsmedia.com for Web Design  worldairports.se 2018   terms of use